sensor_id;sensor_type;location;lat;lon;timestamp;pressure;altitude;pressure_sealevel;temperature;humidity
68506;BME280;55509;50.680;17.942;2023-01-31T00:02:33;99023.77;;;2.29;86.65
68506;BME280;55509;50.680;17.942;2023-01-31T00:05:35;99029.49;;;2.31;86.56
68506;BME280;55509;50.680;17.942;2023-01-31T00:08:37;99028.60;;;2.33;86.09
68506;BME280;55509;50.680;17.942;2023-01-31T00:11:38;99034.16;;;2.34;86.39
68506;BME280;55509;50.680;17.942;2023-01-31T00:14:40;99044.21;;;2.34;86.01
68506;BME280;55509;50.680;17.942;2023-01-31T00:17:41;99053.40;;;2.37;86.05
68506;BME280;55509;50.680;17.942;2023-01-31T00:20:43;99055.29;;;2.41;86.07
68506;BME280;55509;50.680;17.942;2023-01-31T00:23:45;99055.98;;;2.42;85.96
68506;BME280;55509;50.680;17.942;2023-01-31T00:26:47;99071.95;;;2.42;85.69
68506;BME280;55509;50.680;17.942;2023-01-31T00:29:50;99085.48;;;2.42;85.83
68506;BME280;55509;50.680;17.942;2023-01-31T00:32:52;99084.27;;;2.43;86.06
68506;BME280;55509;50.680;17.942;2023-01-31T00:35:53;99088.06;;;2.44;85.72
68506;BME280;55509;50.680;17.942;2023-01-31T00:38:55;99090.84;;;2.45;85.42
68506;BME280;55509;50.680;17.942;2023-01-31T00:41:57;99090.51;;;2.45;85.61
68506;BME280;55509;50.680;17.942;2023-01-31T00:44:58;99097.80;;;2.44;85.80
68506;BME280;55509;50.680;17.942;2023-01-31T00:48:00;99095.88;;;2.45;85.56
68506;BME280;55509;50.680;17.942;2023-01-31T00:51:01;99100.22;;;2.47;85.52
68506;BME280;55509;50.680;17.942;2023-01-31T00:54:03;99102.80;;;2.49;85.41
68506;BME280;55509;50.680;17.942;2023-01-31T00:57:04;99109.23;;;2.51;85.20
68506;BME280;55509;50.680;17.942;2023-01-31T01:00:06;99113.04;;;2.52;85.06
68506;BME280;55509;50.680;17.942;2023-01-31T01:03:08;99110.27;;;2.52;84.93
68506;BME280;55509;50.680;17.942;2023-01-31T01:06:10;99105.41;;;2.51;84.59
68506;BME280;55509;50.680;17.942;2023-01-31T01:09:12;99102.63;;;2.51;84.41
68506;BME280;55509;50.680;17.942;2023-01-31T01:12:14;99099.66;;;2.53;84.14
68506;BME280;55509;50.680;17.942;2023-01-31T01:15:15;99112.67;;;2.55;83.93
68506;BME280;55509;50.680;17.942;2023-01-31T01:18:17;99107.98;;;2.58;83.62
68506;BME280;55509;50.680;17.942;2023-01-31T01:21:20;99112.30;;;2.58;83.59
68506;BME280;55509;50.680;17.942;2023-01-31T01:24:22;99112.99;;;2.59;82.85
68506;BME280;55509;50.680;17.942;2023-01-31T01:27:23;99119.58;;;2.61;82.90
68506;BME280;55509;50.680;17.942;2023-01-31T01:30:25;99124.95;;;2.65;82.46
68506;BME280;55509;50.680;17.942;2023-01-31T01:33:26;99126.35;;;2.66;82.29
68506;BME280;55509;50.680;17.942;2023-01-31T01:36:28;99131.55;;;2.65;82.30
68506;BME280;55509;50.680;17.942;2023-01-31T01:39:29;99134.50;;;2.63;81.98
68506;BME280;55509;50.680;17.942;2023-01-31T01:42:34;99140.60;;;2.60;82.21
68506;BME280;55509;50.680;17.942;2023-01-31T01:45:36;99144.60;;;2.56;82.28
68506;BME280;55509;50.680;17.942;2023-01-31T01:48:37;99149.30;;;2.53;82.36
68506;BME280;55509;50.680;17.942;2023-01-31T01:51:39;99145.14;;;2.53;82.23
68506;BME280;55509;50.680;17.942;2023-01-31T01:54:44;99149.82;;;2.54;81.96
68506;BME280;55509;50.680;17.942;2023-01-31T01:57:48;99148.42;;;2.57;81.56
68506;BME280;55509;50.680;17.942;2023-01-31T02:00:51;99146.50;;;2.58;81.43
68506;BME280;55509;50.680;17.942;2023-01-31T02:03:53;99149.82;;;2.54;81.31
68506;BME280;55509;50.680;17.942;2023-01-31T02:06:55;99150.19;;;2.50;81.00
68506;BME280;55509;50.680;17.942;2023-01-31T02:10:11;99155.56;;;2.48;80.62
68506;BME280;55509;50.680;17.942;2023-01-31T02:13:14;99161.66;;;2.47;80.62
68506;BME280;55509;50.680;17.942;2023-01-31T02:16:16;99157.83;;;2.48;80.63
68506;BME280;55509;50.680;17.942;2023-01-31T02:19:23;99168.58;;;2.49;80.13
68506;BME280;55509;50.680;17.942;2023-01-31T02:22:32;99171.88;;;2.50;80.15
68506;BME280;55509;50.680;17.942;2023-01-31T02:38:37;99192.73;;;2.42;79.24
68506;BME280;55509;50.680;17.942;2023-01-31T02:41:42;99193.95;;;2.38;79.45
68506;BME280;55509;50.680;17.942;2023-01-31T02:44:54;99192.77;;;2.32;79.30
68506;BME280;55509;50.680;17.942;2023-01-31T02:51:06;99217.41;;;2.31;79.23
68506;BME280;55509;50.680;17.942;2023-01-31T02:54:13;99232.67;;;2.28;79.56
68506;BME280;55509;50.680;17.942;2023-01-31T02:57:17;99220.03;;;2.13;79.97
68506;BME280;55509;50.680;17.942;2023-01-31T03:00:19;99225.24;;;1.97;80.78
68506;BME280;55509;50.680;17.942;2023-01-31T03:03:23;99227.67;;;1.83;81.39
68506;BME280;55509;50.680;17.942;2023-01-31T03:15:49;99238.26;;;1.73;81.72
68506;BME280;55509;50.680;17.942;2023-01-31T03:22:17;99253.31;;;1.72;81.66
68506;BME280;55509;50.680;17.942;2023-01-31T03:25:20;99260.09;;;1.71;81.76
68506;BME280;55509;50.680;17.942;2023-01-31T03:28:26;99265.12;;;1.74;81.56
68506;BME280;55509;50.680;17.942;2023-01-31T03:31:29;99277.43;;;1.78;81.79
68506;BME280;55509;50.680;17.942;2023-01-31T03:34:33;99283.49;;;1.79;81.48
68506;BME280;55509;50.680;17.942;2023-01-31T03:41:11;99304.65;;;1.75;81.05
68506;BME280;55509;50.680;17.942;2023-01-31T03:44:18;99315.90;;;1.71;81.95
68506;BME280;55509;50.680;17.942;2023-01-31T03:47:42;99333.22;;;1.64;83.18
68506;BME280;55509;50.680;17.942;2023-01-31T03:50:51;99350.00;;;1.49;83.77
68506;BME280;55509;50.680;17.942;2023-01-31T03:53:55;99353.71;;;1.25;85.33
68506;BME280;55509;50.680;17.942;2023-01-31T03:57:01;99355.51;;;1.03;85.96
68506;BME280;55509;50.680;17.942;2023-01-31T04:00:05;99349.35;;;0.85;87.98
68506;BME280;55509;50.680;17.942;2023-01-31T04:03:22;99352.39;;;0.73;88.04
68506;BME280;55509;50.680;17.942;2023-01-31T04:06:25;99353.02;;;0.63;87.81
68506;BME280;55509;50.680;17.942;2023-01-31T04:09:27;99341.89;;;0.55;88.26
68506;BME280;55509;50.680;17.942;2023-01-31T04:12:28;99347.73;;;0.49;88.66
68506;BME280;55509;50.680;17.942;2023-01-31T04:15:30;99348.59;;;0.48;89.47
68506;BME280;55509;50.680;17.942;2023-01-31T04:18:32;99358.45;;;0.48;89.01
68506;BME280;55509;50.680;17.942;2023-01-31T04:21:33;99365.39;;;0.49;89.17
68506;BME280;55509;50.680;17.942;2023-01-31T04:24:35;99367.33;;;0.54;89.08
68506;BME280;55509;50.680;17.942;2023-01-31T04:27:36;99369.42;;;0.58;89.12
68506;BME280;55509;50.680;17.942;2023-01-31T04:30:39;99362.00;;;0.61;89.38
68506;BME280;55509;50.680;17.942;2023-01-31T04:33:40;99366.86;;;0.63;89.61
68506;BME280;55509;50.680;17.942;2023-01-31T04:36:42;99367.89;;;0.59;89.74
68506;BME280;55509;50.680;17.942;2023-01-31T04:39:43;99368.39;;;0.57;90.21
68506;BME280;55509;50.680;17.942;2023-01-31T04:42:45;99369.27;;;0.59;89.75
68506;BME280;55509;50.680;17.942;2023-01-31T04:45:46;99380.39;;;0.66;89.31
68506;BME280;55509;50.680;17.942;2023-01-31T04:48:48;99383.04;;;0.73;89.04
68506;BME280;55509;50.680;17.942;2023-01-31T04:51:49;99388.09;;;0.78;88.57
68506;BME280;55509;50.680;17.942;2023-01-31T04:54:51;99386.88;;;0.80;87.77
68506;BME280;55509;50.680;17.942;2023-01-31T04:57:52;99387.58;;;0.81;86.94
68506;BME280;55509;50.680;17.942;2023-01-31T05:00:54;99396.95;;;0.84;86.85
68506;BME280;55509;50.680;17.942;2023-01-31T05:03:55;99399.05;;;0.86;86.66
68506;BME280;55509;50.680;17.942;2023-01-31T05:06:57;99402.70;;;0.87;86.61
68506;BME280;55509;50.680;17.942;2023-01-31T05:09:58;99405.78;;;0.84;86.45
68506;BME280;55509;50.680;17.942;2023-01-31T05:13:00;99416.16;;;0.83;86.58
68506;BME280;55509;50.680;17.942;2023-01-31T05:16:02;99420.49;;;0.84;86.48
68506;BME280;55509;50.680;17.942;2023-01-31T05:19:03;99426.41;;;0.86;86.38
68506;BME280;55509;50.680;17.942;2023-01-31T05:22:05;99433.86;;;0.88;86.33
68506;BME280;55509;50.680;17.942;2023-01-31T05:25:07;99434.20;;;0.89;86.03
68506;BME280;55509;50.680;17.942;2023-01-31T05:28:08;99437.49;;;0.88;86.04
68506;BME280;55509;50.680;17.942;2023-01-31T05:31:10;99440.44;;;0.87;86.30
68506;BME280;55509;50.680;17.942;2023-01-31T05:34:13;99433.33;;;0.86;85.94
68506;BME280;55509;50.680;17.942;2023-01-31T05:37:16;99435.59;;;0.89;85.79
68506;BME280;55509;50.680;17.942;2023-01-31T05:40:17;99443.42;;;0.94;85.61
68506;BME280;55509;50.680;17.942;2023-01-31T05:43:19;99447.77;;;0.98;85.80
68506;BME280;55509;50.680;17.942;2023-01-31T05:46:20;99451.27;;;1.02;85.38
68506;BME280;55509;50.680;17.942;2023-01-31T05:49:22;99456.31;;;1.05;85.24
68506;BME280;55509;50.680;17.942;2023-01-31T05:52:24;99455.80;;;1.06;84.87
68506;BME280;55509;50.680;17.942;2023-01-31T05:55:26;99459.77;;;1.05;85.14
68506;BME280;55509;50.680;17.942;2023-01-31T05:58:28;99464.45;;;1.05;84.95
68506;BME280;55509;50.680;17.942;2023-01-31T06:01:29;99472.59;;;1.06;84.54
68506;BME280;55509;50.680;17.942;2023-01-31T06:04:31;99480.92;;;1.09;84.61
68506;BME280;55509;50.680;17.942;2023-01-31T06:07:32;99486.16;;;1.14;84.27
68506;BME280;55509;50.680;17.942;2023-01-31T06:10:34;99494.34;;;1.20;84.20
68506;BME280;55509;50.680;17.942;2023-01-31T06:13:36;99496.27;;;1.24;83.87
68506;BME280;55509;50.680;17.942;2023-01-31T06:16:38;99507.38;;;1.25;83.86
68506;BME280;55509;50.680;17.942;2023-01-31T06:19:39;99512.04;;;1.24;83.47
68506;BME280;55509;50.680;17.942;2023-01-31T06:22:41;99514.64;;;1.25;83.45
68506;BME280;55509;50.680;17.942;2023-01-31T06:25:42;99521.59;;;1.28;83.05
68506;BME280;55509;50.680;17.942;2023-01-31T06:28:44;99529.42;;;1.32;83.28
68506;BME280;55509;50.680;17.942;2023-01-31T06:31:45;99527.88;;;1.35;82.77
68506;BME280;55509;50.680;17.942;2023-01-31T06:34:46;99531.17;;;1.37;82.60
68506;BME280;55509;50.680;17.942;2023-01-31T06:37:48;99534.82;;;1.37;82.81
68506;BME280;55509;50.680;17.942;2023-01-31T06:40:49;99541.21;;;1.36;82.47
68506;BME280;55509;50.680;17.942;2023-01-31T06:43:51;99547.27;;;1.34;82.44
68506;BME280;55509;50.680;17.942;2023-01-31T06:46:52;99551.24;;;1.33;82.62
68506;BME280;55509;50.680;17.942;2023-01-31T06:49:54;99561.98;;;1.31;82.50
68506;BME280;55509;50.680;17.942;2023-01-31T06:52:55;99568.57;;;1.31;82.36
68506;BME280;55509;50.680;17.942;2023-01-31T06:55:57;99571.17;;;1.32;82.47
68506;BME280;55509;50.680;17.942;2023-01-31T06:58:58;99572.42;;;1.37;82.18
68506;BME280;55509;50.680;17.942;2023-01-31T07:02:00;99571.60;;;1.43;81.92
68506;BME280;55509;50.680;17.942;2023-01-31T07:05:01;99574.07;;;1.49;81.80
68506;BME280;55509;50.680;17.942;2023-01-31T07:08:03;99576.52;;;1.53;81.61
68506;BME280;55509;50.680;17.942;2023-01-31T07:11:04;99583.64;;;1.56;81.36
68506;BME280;55509;50.680;17.942;2023-01-31T07:14:06;99579.13;;;1.56;81.13
68506;BME280;55509;50.680;17.942;2023-01-31T07:17:07;99581.22;;;1.56;80.84
68506;BME280;55509;50.680;17.942;2023-01-31T07:20:09;99584.69;;;1.56;80.51
68506;BME280;55509;50.680;17.942;2023-01-31T07:23:11;99589.73;;;1.59;80.27
68506;BME280;55509;50.680;17.942;2023-01-31T07:26:12;99592.54;;;1.64;80.07
68506;BME280;55509;50.680;17.942;2023-01-31T07:29:14;99593.77;;;1.68;79.06
68506;BME280;55509;50.680;17.942;2023-01-31T07:32:15;99600.40;;;1.73;78.72
68506;BME280;55509;50.680;17.942;2023-01-31T07:35:17;99604.93;;;1.78;78.49
68506;BME280;55509;50.680;17.942;2023-01-31T07:38:19;99613.30;;;1.84;78.26
68506;BME280;55509;50.680;17.942;2023-01-31T07:41:21;99616.98;;;1.91;78.02
68506;BME280;55509;50.680;17.942;2023-01-31T07:44:23;99623.43;;;1.96;77.59
68506;BME280;55509;50.680;17.942;2023-01-31T07:47:24;99625.87;;;2.00;76.67
68506;BME280;55509;50.680;17.942;2023-01-31T07:50:26;99627.80;;;2.04;76.57
68506;BME280;55509;50.680;17.942;2023-01-31T07:53:29;99628.89;;;2.12;76.75
68506;BME280;55509;50.680;17.942;2023-01-31T07:56:31;99630.13;;;2.17;76.48
68506;BME280;55509;50.680;17.942;2023-01-31T07:59:33;99633.45;;;2.22;75.88
68506;BME280;55509;50.680;17.942;2023-01-31T08:02:34;99638.83;;;2.20;76.05
68506;BME280;55509;50.680;17.942;2023-01-31T08:05:55;99647.46;;;2.15;76.15
68506;BME280;55509;50.680;17.942;2023-01-31T08:08:57;99654.38;;;2.10;76.26
68506;BME280;55509;50.680;17.942;2023-01-31T08:11:58;99654.90;;;2.07;76.81
68506;BME280;55509;50.680;17.942;2023-01-31T08:15:00;99660.45;;;2.07;77.05
68506;BME280;55509;50.680;17.942;2023-01-31T08:18:02;99664.09;;;2.12;77.60
68506;BME280;55509;50.680;17.942;2023-01-31T08:21:04;99663.11;;;2.18;77.54
68506;BME280;55509;50.680;17.942;2023-01-31T08:24:05;99664.52;;;2.23;77.45
68506;BME280;55509;50.680;17.942;2023-01-31T08:27:07;99665.39;;;2.23;77.74
68506;BME280;55509;50.680;17.942;2023-01-31T08:30:09;99667.48;;;2.23;77.79
68506;BME280;55509;50.680;17.942;2023-01-31T08:33:11;99675.11;;;2.25;77.91
68506;BME280;55509;50.680;17.942;2023-01-31T08:36:16;99671.64;;;2.25;77.70
68506;BME280;55509;50.680;17.942;2023-01-31T08:39:18;99674.62;;;2.29;77.70
68506;BME280;55509;50.680;17.942;2023-01-31T08:42:20;99684.73;;;2.41;77.71
68506;BME280;55509;50.680;17.942;2023-01-31T08:45:21;99689.46;;;2.47;77.59
68506;BME280;55509;50.680;17.942;2023-01-31T08:48:23;99696.73;;;2.44;77.38
68506;BME280;55509;50.680;17.942;2023-01-31T08:51:24;99699.34;;;2.42;77.44
68506;BME280;55509;50.680;17.942;2023-01-31T08:54:26;99693.09;;;2.44;77.65
68506;BME280;55509;50.680;17.942;2023-01-31T08:57:28;99697.11;;;2.49;77.42
68506;BME280;55509;50.680;17.942;2023-01-31T09:00:30;99695.57;;;2.52;77.39
68506;BME280;55509;50.680;17.942;2023-01-31T09:03:31;99703.23;;;2.61;77.18
68506;BME280;55509;50.680;17.942;2023-01-31T09:06:33;99700.31;;;2.66;76.46
68506;BME280;55509;50.680;17.942;2023-01-31T09:09:34;99706.05;;;2.70;76.18
68506;BME280;55509;50.680;17.942;2023-01-31T09:12:36;99703.15;;;2.80;76.22
68506;BME280;55509;50.680;17.942;2023-01-31T09:15:37;99703.55;;;2.92;76.07
68506;BME280;55509;50.680;17.942;2023-01-31T09:18:39;99706.54;;;3.04;75.55
68506;BME280;55509;50.680;17.942;2023-01-31T09:21:40;99713.49;;;3.10;75.39
68506;BME280;55509;50.680;17.942;2023-01-31T09:24:42;99715.77;;;3.15;75.63
68506;BME280;55509;50.680;17.942;2023-01-31T09:27:43;99720.13;;;3.22;74.77
68506;BME280;55509;50.680;17.942;2023-01-31T09:30:45;99723.96;;;3.28;74.00
68506;BME280;55509;50.680;17.942;2023-01-31T09:33:46;99726.08;;;3.47;73.55
68506;BME280;55509;50.680;17.942;2023-01-31T09:36:48;99727.86;;;3.87;73.47
68506;BME280;55509;50.680;17.942;2023-01-31T09:39:49;99717.73;;;4.16;72.02
68506;BME280;55509;50.680;17.942;2023-01-31T09:42:51;99714.56;;;4.43;70.93
68506;BME280;55509;50.680;17.942;2023-01-31T09:45:55;99714.11;;;4.75;70.66
68506;BME280;55509;50.680;17.942;2023-01-31T09:48:58;99713.56;;;4.78;69.86
68506;BME280;55509;50.680;17.942;2023-01-31T09:52:02;99717.10;;;4.64;70.11
68506;BME280;55509;50.680;17.942;2023-01-31T09:55:04;99714.39;;;4.86;69.88
68506;BME280;55509;50.680;17.942;2023-01-31T09:58:44;99708.10;;;5.96;68.49
68506;BME280;55509;50.680;17.942;2023-01-31T10:01:37;99706.94;;;6.13;66.87
68506;BME280;55509;50.680;17.942;2023-01-31T10:05:01;99710.42;;;5.68;66.99
68506;BME280;55509;50.680;17.942;2023-01-31T10:08:08;99712.60;;;5.31;67.45
68506;BME280;55509;50.680;17.942;2023-01-31T10:11:15;99708.02;;;5.08;67.38
68506;BME280;55509;50.680;17.942;2023-01-31T10:17:37;99712.86;;;4.80;68.50
68506;BME280;55509;50.680;17.942;2023-01-31T10:20:48;99711.51;;;4.71;68.68
68506;BME280;55509;50.680;17.942;2023-01-31T10:23:55;99711.20;;;4.56;68.79
68506;BME280;55509;50.680;17.942;2023-01-31T10:27:06;99703.59;;;4.40;68.68
68506;BME280;55509;50.680;17.942;2023-01-31T10:30:14;99704.66;;;4.28;68.54
68506;BME280;55509;50.680;17.942;2023-01-31T10:36:28;99701.67;;;4.46;67.29
68506;BME280;55509;50.680;17.942;2023-01-31T10:39:32;99692.45;;;4.39;67.04
68506;BME280;55509;50.680;17.942;2023-01-31T10:42:36;99686.06;;;4.17;67.51
68506;BME280;55509;50.680;17.942;2023-01-31T10:45:38;99684.52;;;3.96;67.53
68506;BME280;55509;50.680;17.942;2023-01-31T10:48:39;99679.84;;;3.82;67.83
68506;BME280;55509;50.680;17.942;2023-01-31T10:51:46;99676.02;;;3.70;68.46
68506;BME280;55509;50.680;17.942;2023-01-31T10:57:53;99669.73;;;3.94;68.62
68506;BME280;55509;50.680;17.942;2023-01-31T11:00:56;99663.39;;;4.29;68.17
68506;BME280;55509;50.680;17.942;2023-01-31T11:03:57;99661.39;;;5.42;66.87
68506;BME280;55509;50.680;17.942;2023-01-31T11:07:00;99655.08;;;6.30;64.11
68506;BME280;55509;50.680;17.942;2023-01-31T11:10:19;99652.58;;;6.35;63.93
68506;BME280;55509;50.680;17.942;2023-01-31T11:13:20;99657.77;;;6.05;63.38
68506;BME280;55509;50.680;17.942;2023-01-31T11:16:23;99658.41;;;5.48;64.26
68506;BME280;55509;50.680;17.942;2023-01-31T11:19:31;99662.08;;;4.96;65.63
68506;BME280;55509;50.680;17.942;2023-01-31T11:22:34;99660.88;;;4.53;67.36
68506;BME280;55509;50.680;17.942;2023-01-31T11:25:37;99661.17;;;4.17;68.84
68506;BME280;55509;50.680;17.942;2023-01-31T11:28:39;99654.25;;;4.01;69.88
68506;BME280;55509;50.680;17.942;2023-01-31T11:31:41;99651.92;;;4.24;70.45
68506;BME280;55509;50.680;17.942;2023-01-31T11:38:16;99627.33;;;6.09;67.73
68506;BME280;55509;50.680;17.942;2023-01-31T11:41:28;99622.05;;;7.85;62.89
68506;BME280;55509;50.680;17.942;2023-01-31T11:44:30;99613.77;;;8.18;59.86
68506;BME280;55509;50.680;17.942;2023-01-31T11:50:35;99603.38;;;7.42;57.95
68506;BME280;55509;50.680;17.942;2023-01-31T11:53:48;99596.22;;;7.08;58.61
68506;BME280;55509;50.680;17.942;2023-01-31T11:56:51;99596.48;;;6.78;59.67
68506;BME280;55509;50.680;17.942;2023-01-31T11:59:53;99598.05;;;6.24;60.60
68506;BME280;55509;50.680;17.942;2023-01-31T12:06:04;99593.71;;;5.68;62.46
68506;BME280;55509;50.680;17.942;2023-01-31T12:09:19;99591.48;;;5.43;62.29
68506;BME280;55509;50.680;17.942;2023-01-31T12:12:29;99588.89;;;5.42;63.54
68506;BME280;55509;50.680;17.942;2023-01-31T12:15:34;99590.35;;;5.73;63.48
68506;BME280;55509;50.680;17.942;2023-01-31T12:21:46;99597.50;;;5.35;64.18
68506;BME280;55509;50.680;17.942;2023-01-31T12:24:59;99595.74;;;5.13;64.64
68506;BME280;55509;50.680;17.942;2023-01-31T12:28:11;99594.15;;;4.91;65.53
68506;BME280;55509;50.680;17.942;2023-01-31T12:44:23;99587.55;;;4.88;67.59
68506;BME280;55509;50.680;17.942;2023-01-31T12:47:46;99584.79;;;4.85;67.78
68506;BME280;55509;50.680;17.942;2023-01-31T12:51:04;99577.78;;;4.89;67.70
68506;BME280;55509;50.680;17.942;2023-01-31T12:54:33;99571.19;;;4.86;67.59
68506;BME280;55509;50.680;17.942;2023-01-31T12:57:34;99570.23;;;4.72;68.30
68506;BME280;55509;50.680;17.942;2023-01-31T13:00:41;99569.81;;;4.52;68.41
68506;BME280;55509;50.680;17.942;2023-01-31T13:07:12;99568.39;;;4.21;70.20
68506;BME280;55509;50.680;17.942;2023-01-31T13:14:03;99568.81;;;3.98;72.39
68506;BME280;55509;50.680;17.942;2023-01-31T13:16:58;99569.72;;;3.91;72.91
68506;BME280;55509;50.680;17.942;2023-01-31T13:20:04;99570.59;;;3.86;73.31
68506;BME280;55509;50.680;17.942;2023-01-31T13:23:12;99573.91;;;3.81;73.76
68506;BME280;55509;50.680;17.942;2023-01-31T13:26:18;99573.23;;;3.76;74.16
68506;BME280;55509;50.680;17.942;2023-01-31T13:29:34;99568.02;;;3.70;74.49
68506;BME280;55509;50.680;17.942;2023-01-31T13:32:44;99565.08;;;3.62;74.86
68506;BME280;55509;50.680;17.942;2023-01-31T13:35:46;99559.17;;;3.56;75.47
68506;BME280;55509;50.680;17.942;2023-01-31T13:38:49;99560.05;;;3.51;75.77
68506;BME280;55509;50.680;17.942;2023-01-31T13:41:50;99553.63;;;3.48;76.06
68506;BME280;55509;50.680;17.942;2023-01-31T13:44:52;99555.36;;;3.46;76.40
68506;BME280;55509;50.680;17.942;2023-01-31T13:47:59;99550.50;;;3.41;76.38
68506;BME280;55509;50.680;17.942;2023-01-31T13:51:03;99538.33;;;3.43;76.64
68506;BME280;55509;50.680;17.942;2023-01-31T13:55:13;99532.94;;;3.45;76.63
68506;BME280;55509;50.680;17.942;2023-01-31T13:57:42;99529.81;;;3.46;76.88
68506;BME280;55509;50.680;17.942;2023-01-31T14:00:48;99523.04;;;3.44;77.53
68506;BME280;55509;50.680;17.942;2023-01-31T14:22:43;99515.77;;;2.97;80.25
68506;BME280;55509;50.680;17.942;2023-01-31T14:26:27;99511.45;;;2.95;80.50
68506;BME280;55509;50.680;17.942;2023-01-31T14:29:26;99509.88;;;2.96;80.41
68506;BME280;55509;50.680;17.942;2023-01-31T14:32:29;99507.42;;;2.96;80.51
68506;BME280;55509;50.680;17.942;2023-01-31T14:35:38;99504.83;;;2.98;80.47
68506;BME280;55509;50.680;17.942;2023-01-31T14:45:09;99495.26;;;3.03;80.39
68506;BME280;55509;50.680;17.942;2023-01-31T14:48:18;99494.58;;;3.02;80.41
68506;BME280;55509;50.680;17.942;2023-01-31T14:58:06;99487.28;;;2.94;80.73
68506;BME280;55509;50.680;17.942;2023-01-31T15:01:17;99487.29;;;2.90;80.63
68506;BME280;55509;50.680;17.942;2023-01-31T15:04:20;99493.02;;;2.91;80.54
68506;BME280;55509;50.680;17.942;2023-01-31T15:07:23;99489.71;;;2.90;80.47
68506;BME280;55509;50.680;17.942;2023-01-31T15:13:46;99477.39;;;2.89;80.61
68506;BME280;55509;50.680;17.942;2023-01-31T15:16:53;99473.91;;;2.83;80.89
68506;BME280;55509;50.680;17.942;2023-01-31T15:19:59;99469.75;;;2.76;81.08
68506;BME280;55509;50.680;17.942;2023-01-31T15:23:04;99467.65;;;2.69;81.15
68506;BME280;55509;50.680;17.942;2023-01-31T15:26:09;99465.39;;;2.63;81.69
68506;BME280;55509;50.680;17.942;2023-01-31T15:29:33;99473.20;;;2.58;81.85
68506;BME280;55509;50.680;17.942;2023-01-31T15:32:38;99482.40;;;2.54;82.06
68506;BME280;55509;50.680;17.942;2023-01-31T15:38:51;99479.59;;;2.37;82.77
68506;BME280;55509;50.680;17.942;2023-01-31T15:41:54;99481.32;;;2.28;83.24
68506;BME280;55509;50.680;17.942;2023-01-31T15:48:17;99475.20;;;2.13;83.68
68506;BME280;55509;50.680;17.942;2023-01-31T15:51:19;99476.39;;;2.07;84.23
68506;BME280;55509;50.680;17.942;2023-01-31T15:54:21;99475.17;;;2.01;84.82
68506;BME280;55509;50.680;17.942;2023-01-31T15:57:35;99472.89;;;1.94;84.89
68506;BME280;55509;50.680;17.942;2023-01-31T16:00:38;99472.68;;;1.87;85.00
68506;BME280;55509;50.680;17.942;2023-01-31T16:03:41;99469.55;;;1.82;85.46
68506;BME280;55509;50.680;17.942;2023-01-31T16:06:44;99468.14;;;1.78;85.73
68506;BME280;55509;50.680;17.942;2023-01-31T16:09:46;99465.54;;;1.76;85.81
68506;BME280;55509;50.680;17.942;2023-01-31T16:12:49;99461.21;;;1.78;85.90
68506;BME280;55509;50.680;17.942;2023-01-31T16:15:52;99454.81;;;1.81;85.92
68506;BME280;55509;50.680;17.942;2023-01-31T16:18:56;99450.48;;;1.86;86.44
68506;BME280;55509;50.680;17.942;2023-01-31T16:21:58;99450.66;;;1.89;86.25
68506;BME280;55509;50.680;17.942;2023-01-31T16:25:00;99450.48;;;1.89;86.35
68506;BME280;55509;50.680;17.942;2023-01-31T16:28:03;99455.87;;;1.90;86.12
68506;BME280;55509;50.680;17.942;2023-01-31T16:31:06;99449.80;;;1.91;86.57
68506;BME280;55509;50.680;17.942;2023-01-31T16:34:13;99453.80;;;1.94;86.14
68506;BME280;55509;50.680;17.942;2023-01-31T16:37:33;99452.95;;;1.98;86.39
68506;BME280;55509;50.680;17.942;2023-01-31T16:40:36;99451.04;;;1.98;86.43
68506;BME280;55509;50.680;17.942;2023-01-31T16:43:45;99445.48;;;1.97;86.64
68506;BME280;55509;50.680;17.942;2023-01-31T16:46:51;99442.54;;;1.95;86.45
68506;BME280;55509;50.680;17.942;2023-01-31T16:50:02;99440.11;;;1.97;86.44
68506;BME280;55509;50.680;17.942;2023-01-31T16:53:16;99433.88;;;2.00;86.71
68506;BME280;55509;50.680;17.942;2023-01-31T16:56:19;99429.72;;;2.02;86.69
68506;BME280;55509;50.680;17.942;2023-01-31T17:02:40;99428.86;;;2.04;86.63
68506;BME280;55509;50.680;17.942;2023-01-31T17:05:42;99422.80;;;2.05;86.37
68506;BME280;55509;50.680;17.942;2023-01-31T17:08:45;99416.05;;;2.08;86.34
68506;BME280;55509;50.680;17.942;2023-01-31T17:11:46;99413.79;;;2.11;86.11
68506;BME280;55509;50.680;17.942;2023-01-31T17:14:48;99402.34;;;2.10;86.05
68506;BME280;55509;50.680;17.942;2023-01-31T17:17:50;99393.31;;;2.09;86.20
68506;BME280;55509;50.680;17.942;2023-01-31T17:20:51;99389.67;;;2.09;86.17
68506;BME280;55509;50.680;17.942;2023-01-31T17:23:53;99387.94;;;2.12;85.98
68506;BME280;55509;50.680;17.942;2023-01-31T17:26:54;99382.92;;;2.15;86.00
68506;BME280;55509;50.680;17.942;2023-01-31T17:29:56;99385.52;;;2.15;85.85
68506;BME280;55509;50.680;17.942;2023-01-31T17:32:57;99377.19;;;2.14;85.84
68506;BME280;55509;50.680;17.942;2023-01-31T17:35:59;99366.94;;;2.13;86.02
68506;BME280;55509;50.680;17.942;2023-01-31T17:39:02;99366.95;;;2.11;86.02
68506;BME280;55509;50.680;17.942;2023-01-31T17:42:04;99368.69;;;2.10;86.22
68506;BME280;55509;50.680;17.942;2023-01-31T17:45:11;99370.08;;;2.12;86.15
68506;BME280;55509;50.680;17.942;2023-01-31T17:48:16;99364.70;;;2.14;86.29
68506;BME280;55509;50.680;17.942;2023-01-31T17:51:19;99353.24;;;2.14;86.21
68506;BME280;55509;50.680;17.942;2023-01-31T17:54:21;99343.52;;;2.12;86.32
68506;BME280;55509;50.680;17.942;2023-01-31T17:57:23;99339.20;;;2.09;86.35
68506;BME280;55509;50.680;17.942;2023-01-31T18:00:24;99339.20;;;2.08;86.43
68506;BME280;55509;50.680;17.942;2023-01-31T18:03:26;99333.48;;;2.08;86.49
68506;BME280;55509;50.680;17.942;2023-01-31T18:06:27;99337.98;;;2.10;86.34
68506;BME280;55509;50.680;17.942;2023-01-31T18:09:29;99328.43;;;2.12;86.52
68506;BME280;55509;50.680;17.942;2023-01-31T18:12:31;99321.33;;;2.12;86.60
68506;BME280;55509;50.680;17.942;2023-01-31T18:15:34;99318.38;;;2.10;86.65